Time;durP1;ratioP1;P1;durP2;ratioP2;P2;SDS_P1;SDS_P2;PMS_P1;PMS_P2;Temp;Humidity;BMP_temperature;BMP_pressure;BME280_temperature;BME280_humidity;BME280_pressure;Samples;Min_cycle;Max_cycle;Signal;HPM_P1;HPM_P2
2022/09/30 00:01:34;;;;;;;9.20;5.60;;;10.30;99.90;;;;;;5036298;28;20140;-68
2022/09/30 00:04:00;;;;;;;8.82;5.75;;;10.30;99.90;;;;;;5036048;28;20026;-68
2022/09/30 00:06:28;;;;;;;9.60;5.72;;;10.30;99.90;;;;;;5036455;28;20026;-68
2022/09/30 00:08:55;;;;;;;10.02;5.65;;;10.30;99.90;;;;;;5035944;28;20022;-68
2022/09/30 00:11:28;;;;;;;6.70;5.03;;;10.30;99.90;;;;;;5036146;28;20022;-68
2022/09/30 00:13:54;;;;;;;19.98;6.32;;;10.30;99.90;;;;;;5036391;28;20026;-68
2022/09/30 00:16:22;;;;;;;7.55;5.70;;;10.40;99.90;;;;;;5035404;28;20505;-68
2022/09/30 00:18:48;;;;;;;10.65;6.65;;;10.40;99.90;;;;;;5036560;28;20462;-68
2022/09/30 00:21:15;;;;;;;10.57;6.90;;;10.30;99.90;;;;;;5036152;28;20029;-68
2022/09/30 00:23:42;;;;;;;12.65;6.40;;;10.40;99.90;;;;;;5036086;28;20029;-68
2022/09/30 00:26:12;;;;;;;15.20;7.35;;;10.30;99.90;;;;;;5036166;28;20025;-68
2022/09/30 00:28:39;;;;;;;8.27;6.57;;;10.30;99.90;;;;;;5035330;28;20022;-68
2022/09/30 00:31:07;;;;;;;12.02;7.05;;;10.30;99.90;;;;;;5035802;28;20030;-68
2022/09/30 00:33:33;;;;;;;13.98;6.95;;;10.30;99.90;;;;;;5035673;28;20437;-68
2022/09/30 00:36:00;;;;;;;15.52;7.15;;;10.30;99.90;;;;;;5035961;28;20033;-68
2022/09/30 00:38:26;;;;;;;14.32;7.40;;;10.30;99.90;;;;;;5035110;28;20025;-68
2022/09/30 00:40:52;;;;;;;10.57;7.60;;;10.30;99.90;;;;;;5035489;28;20049;-68
2022/09/30 00:43:40;;;;;;;12.07;6.78;;;10.30;99.90;;;;;;5035611;28;20060;-68
2022/09/30 00:46:16;;;;;;;13.90;5.95;;;10.30;99.90;;;;;;5035582;28;20018;-68
2022/09/30 00:48:42;;;;;;;8.10;6.45;;;10.30;99.90;;;;;;5035806;28;20469;-68
2022/09/30 00:51:08;;;;;;;9.98;6.85;;;10.30;99.90;;;;;;5035125;28;20115;-68
2022/09/30 00:53:49;;;;;;;8.98;6.20;;;10.30;99.90;;;;;;5035355;28;20485;-68
2022/09/30 00:56:21;;;;;;;9.35;6.40;;;10.40;99.90;;;;;;5035350;28;20124;-68
2022/09/30 00:58:59;;;;;;;7.72;5.85;;;10.40;99.90;;;;;;5035066;28;20029;-67
2022/09/30 01:01:25;;;;;;;9.73;6.55;;;10.40;99.90;;;;;;5035212;28;20508;-68
2022/09/30 01:03:55;;;;;;;6.78;5.38;;;10.40;99.90;;;;;;5035065;28;20038;-68
2022/09/30 01:06:22;;;;;;;12.70;6.63;;;10.40;99.90;;;;;;5035473;28;20037;-68
2022/09/30 01:08:49;;;;;;;11.70;7.93;;;10.40;99.90;;;;;;5034528;28;20056;-68
2022/09/30 01:11:14;;;;;;;8.52;6.70;;;10.30;99.90;;;;;;5035587;28;20061;-68
2022/09/30 01:13:43;;;;;;;11.13;7.45;;;10.30;99.90;;;;;;5034919;28;20476;-68
2022/09/30 01:16:33;;;;;;;7.70;6.13;;;10.30;99.90;;;;;;5034937;28;20109;-68
2022/09/30 01:19:01;;;;;;;10.88;8.52;;;10.30;99.90;;;;;;5034874;28;20029;-68
2022/09/30 01:21:54;;;;;;;6.55;5.35;;;10.30;99.90;;;;;;5034846;28;20370;-68
2022/09/30 01:24:49;;;;;;;8.13;6.35;;;10.30;99.90;;;;;;5034748;28;20045;-68
2022/09/30 01:27:29;;;;;;;7.25;5.60;;;10.30;99.90;;;;;;5033842;28;20064;-68
2022/09/30 01:30:08;;;;;;;9.27;6.07;;;10.30;99.90;;;;;;5035008;28;20062;-68
2022/09/30 01:33:11;;;;;;;8.43;6.25;;;10.30;99.90;;;;;;5034767;28;20025;-68
2022/09/30 01:35:42;;;;;;;9.30;6.57;;;10.30;99.90;;;;;;5021653;28;20048;-68
2022/09/30 01:38:35;;;;;;;11.07;7.25;;;10.30;99.90;;;;;;5034235;28;20036;-68
2022/09/30 01:41:27;;;;;;;18.90;8.32;;;10.30;99.90;;;;;;5034702;28;20112;-68
2022/09/30 01:44:08;;;;;;;10.77;7.70;;;10.30;99.90;;;;;;5006714;28;20068;-68
2022/09/30 01:46:37;;;;;;;20.30;8.38;;;10.30;99.90;;;;;;5034934;28;20018;-68
2022/09/30 01:49:13;;;;;;;19.10;8.68;;;10.30;99.90;;;;;;5034296;28;20481;-68
2022/09/30 01:51:52;;;;;;;13.25;8.35;;;10.30;99.90;;;;;;5034107;28;20029;-68
2022/09/30 01:54:28;;;;;;;12.82;9.13;;;10.30;99.90;;;;;;5034496;28;20029;-68
2022/09/30 01:57:02;;;;;;;15.07;7.82;;;10.30;99.90;;;;;;5034210;28;20412;-68
2022/09/30 01:59:35;;;;;;;19.92;8.98;;;10.30;99.90;;;;;;5034317;28;20028;-68
2022/09/30 02:02:03;;;;;;;13.27;8.52;;;10.20;99.90;;;;;;5034159;28;20029;-68
2022/09/30 02:04:34;;;;;;;11.15;8.30;;;10.30;99.90;;;;;;5033678;28;20529;-68
2022/09/30 02:07:06;;;;;;;16.27;9.25;;;10.20;99.90;;;;;;5034308;28;20025;-68
2022/09/30 02:09:41;;;;;;;16.77;9.43;;;10.20;99.90;;;;;;5033245;28;20056;-68
2022/09/30 02:12:12;;;;;;;12.10;8.13;;;10.20;99.90;;;;;;5052112;28;20171;-68
2022/09/30 02:14:54;;;;;;;12.80;9.13;;;10.20;99.90;;;;;;5037728;28;20033;-68
2022/09/30 02:17:24;;;;;;;12.63;9.15;;;10.20;99.90;;;;;;5052123;28;20086;-68
2022/09/30 02:20:26;;;;;;;12.70;8.48;;;10.20;99.90;;;;;;5053601;28;20029;-68
2022/09/30 02:22:57;;;;;;;18.13;9.90;;;10.20;99.90;;;;;;5050105;28;20052;-68
2022/09/30 02:25:28;;;;;;;10.95;8.85;;;10.20;99.90;;;;;;5053922;28;20029;-68
2022/09/30 02:27:59;;;;;;;13.85;9.00;;;10.10;99.90;;;;;;5053529;28;20017;-68
2022/09/30 02:30:26;;;;;;;17.33;10.05;;;10.20;99.90;;;;;;5053709;28;20028;-68
2022/09/30 02:32:58;;;;;;;12.10;8.52;;;10.10;99.90;;;;;;5053775;28;20488;-68
2022/09/30 02:35:33;;;;;;;12.77;8.80;;;10.10;99.90;;;;;;5053040;28;20028;-68
2022/09/30 02:38:09;;;;;;;16.63;10.05;;;10.10;99.90;;;;;;5053409;28;20048;-68
2022/09/30 02:40:42;;;;;;;19.40;11.32;;;10.10;99.90;;;;;;5053154;28;20065;-68
2022/09/30 02:43:08;;;;;;;16.00;10.70;;;10.10;99.90;;;;;;5036870;28;20032;-68
2022/09/30 02:46:11;;;;;;;15.02;10.77;;;10.00;99.90;;;;;;5032929;28;20026;-68
2022/09/30 02:49:03;;;;;;;12.95;9.63;;;10.10;99.90;;;;;;5033653;28;20056;-68
2022/09/30 02:51:41;;;;;;;11.90;10.18;;;10.10;99.90;;;;;;5033615;28;20040;-68
2022/09/30 02:54:20;;;;;;;17.10;9.90;;;10.10;99.90;;;;;;5032940;28;20025;-68
2022/09/30 02:56:55;;;;;;;12.57;10.85;;;10.10;99.90;;;;;;5033300;28;20025;-68
2022/09/30 02:59:22;;;;;;;20.23;11.57;;;10.10;99.90;;;;;;5033476;28;20028;-68
2022/09/30 03:01:49;;;;;;;16.98;11.05;;;10.10;99.90;;;;;;5033239;28;20132;-68
2022/09/30 03:04:20;;;;;;;15.32;9.52;;;10.00;99.90;;;;;;5086634;22;20131;-70
2022/09/30 03:06:46;;;;;;;12.68;9.85;;;10.10;99.90;;;;;;5053809;28;20033;-71
2022/09/30 03:09:11;;;;;;;12.52;9.70;;;10.10;99.90;;;;;;5052804;28;20365;-71
2022/09/30 03:11:37;;;;;;;16.05;9.80;;;10.10;99.90;;;;;;5053286;28;20025;-71
2022/09/30 03:14:15;;;;;;;17.20;10.68;;;10.10;99.90;;;;;;5053099;28;20075;-71
2022/09/30 03:16:59;;;;;;;16.05;10.25;;;10.10;99.90;;;;;;5027369;28;20108;-70
2022/09/30 03:19:37;;;;;;;;;;;10.10;99.90;;;;;;5014083;28;20099;-71
2022/09/30 03:22:19;;;;;;;14.95;10.25;;;10.00;99.90;;;;;;5013802;28;20372;-71
2022/09/30 03:25:15;;;;;;;13.65;9.60;;;10.00;99.90;;;;;;5013229;28;20030;-70
2022/09/30 03:27:50;;;;;;;16.08;10.70;;;10.00;99.90;;;;;;5013749;28;20030;-71
2022/09/30 03:30:19;;;;;;;15.18;11.30;;;10.00;99.90;;;;;;5013682;28;20030;-71
2022/09/30 03:32:58;;;;;;;14.18;11.35;;;10.00;99.90;;;;;;5024401;28;20021;-71
2022/09/30 03:35:36;;;;;;;18.70;11.93;;;10.00;99.90;;;;;;5033111;28;20028;-71
2022/09/30 03:38:25;;;;;;;19.35;11.93;;;10.00;99.90;;;;;;5033099;28;20481;-71
2022/09/30 03:41:18;;;;;;;22.63;11.68;;;10.00;99.90;;;;;;5033074;28;20112;-70
2022/09/30 03:44:00;;;;;;;17.33;12.45;;;10.00;99.90;;;;;;5015183;28;20469;-71
2022/09/30 03:46:41;;;;;;;14.55;11.05;;;9.90;99.90;;;;;;5033563;28;20079;-71
2022/09/30 03:49:22;;;;;;;20.20;11.80;;;9.90;99.90;;;;;;5032633;28;20105;-71
2022/09/30 03:51:47;;;;;;;18.17;12.45;;;9.90;99.90;;;;;;5036233;28;20396;-71
2022/09/30 03:54:13;;;;;;;17.20;12.77;;;10.00;99.90;;;;;;5036543;28;20025;-71
2022/09/30 03:56:42;;;;;;;17.05;12.82;;;9.90;99.90;;;;;;5036664;28;20033;-71
2022/09/30 03:59:26;;;;;;;19.75;13.30;;;9.80;99.90;;;;;;5036552;28;20021;-71
2022/09/30 04:01:52;;;;;;;24.85;12.82;;;9.80;99.90;;;;;;5037151;28;20021;-70
2022/09/30 04:04:18;;;;;;;24.50;13.82;;;9.80;99.90;;;;;;5056246;28;20552;-70
2022/09/30 04:06:43;;;;;;;18.42;13.20;;;9.80;99.90;;;;;;5056317;28;20051;-71
2022/09/30 04:09:09;;;;;;;20.33;13.45;;;9.80;99.90;;;;;;5055767;28;20025;-70
2022/09/30 04:11:34;;;;;;;18.73;14.32;;;9.70;99.90;;;;;;5056395;28;20066;-71
2022/09/30 04:14:00;;;;;;;19.23;13.32;;;9.70;99.90;;;;;;5044902;28;20026;-71
2022/09/30 04:16:28;;;;;;;21.05;14.00;;;9.60;99.90;;;;;;5036346;28;20044;-71
2022/09/30 04:18:55;;;;;;;21.52;14.35;;;9.60;99.90;;;;;;5036429;28;20021;-71
2022/09/30 04:21:21;;;;;;;20.88;13.43;;;9.60;99.90;;;;;;5035712;28;20021;-71
2022/09/30 04:23:48;;;;;;;22.35;14.23;;;9.50;99.90;;;;;;5035881;28;20018;-71
2022/09/30 04:26:15;;;;;;;27.67;14.90;;;9.50;99.90;;;;;;5036007;28;20021;-71
2022/09/30 04:28:40;;;;;;;21.70;14.88;;;9.40;99.90;;;;;;5036033;28;20025;-71
2022/09/30 04:31:07;;;;;;;20.08;14.30;;;9.40;99.90;;;;;;5036189;28;20108;-71
2022/09/30 04:33:33;;;;;;;18.55;13.10;;;9.30;99.90;;;;;;5035861;28;20071;-71
2022/09/30 04:35:59;;;;;;;27.42;14.70;;;9.30;99.90;;;;;;5035636;28;20034;-71
2022/09/30 04:38:25;;;;;;;16.73;12.60;;;9.20;99.90;;;;;;5035771;28;20058;-71
2022/09/30 04:40:53;;;;;;;15.38;11.65;;;9.00;99.90;;;;;;5035493;28;20033;-71
2022/09/30 04:43:21;;;;;;;15.98;11.98;;;8.90;99.90;;;;;;5035650;28;20048;-71
2022/09/30 04:45:47;;;;;;;17.23;12.43;;;8.80;99.90;;;;;;5035630;28;20017;-70
2022/09/30 04:48:13;;;;;;;21.13;13.77;;;8.80;99.90;;;;;;5035191;28;20033;-71
2022/09/30 04:50:39;;;;;;;23.52;16.70;;;8.80;99.90;;;;;;5036160;28;20044;-71
2022/09/30 04:53:05;;;;;;;25.67;16.83;;;8.90;99.90;;;;;;5035628;28;20460;-71
2022/09/30 04:55:31;;;;;;;23.52;17.77;;;8.90;99.90;;;;;;5035998;28;20025;-71
2022/09/30 04:57:56;;;;;;;22.40;16.95;;;9.00;99.90;;;;;;5036003;28;20036;-71
2022/09/30 05:00:23;;;;;;;28.20;18.15;;;9.10;99.90;;;;;;5036047;28;20021;-70
2022/09/30 05:02:49;;;;;;;26.00;18.52;;;9.10;99.90;;;;;;5034357;28;20029;-71
2022/09/30 05:05:16;;;;;;;25.48;17.13;;;9.10;99.90;;;;;;5035619;28;20539;-71
2022/09/30 05:07:42;;;;;;;30.65;17.85;;;9.20;99.90;;;;;;5035323;28;20027;-71
2022/09/30 05:10:09;;;;;;;24.92;16.85;;;9.20;99.90;;;;;;5035426;28;20361;-71
2022/09/30 05:12:36;;;;;;;25.30;16.52;;;9.10;99.90;;;;;;5034611;28;20022;-71
2022/09/30 05:15:02;;;;;;;23.08;15.80;;;9.10;99.90;;;;;;5035144;28;20049;-71
2022/09/30 05:17:30;;;;;;;19.30;15.00;;;9.10;99.90;;;;;;5035283;28;20412;-71
2022/09/30 05:19:55;;;;;;;21.02;15.05;;;9.10;99.90;;;;;;5035056;28;20138;-71
2022/09/30 05:22:23;;;;;;;21.80;14.20;;;9.10;99.90;;;;;;5035086;28;20066;-70
2022/09/30 05:24:49;;;;;;;18.52;15.05;;;9.10;99.90;;;;;;5034778;28;20079;-71
2022/09/30 05:27:15;;;;;;;18.42;14.45;;;9.10;99.90;;;;;;5035075;28;20060;-71
2022/09/30 05:29:41;;;;;;;19.48;13.93;;;9.10;99.90;;;;;;5034881;28;20489;-71
2022/09/30 05:32:06;;;;;;;22.33;15.52;;;9.10;99.90;;;;;;5034660;28;20022;-71
2022/09/30 05:34:32;;;;;;;23.73;15.68;;;9.00;99.90;;;;;;5034664;28;20029;-71
2022/09/30 05:36:58;;;;;;;18.58;13.60;;;9.10;99.90;;;;;;5034583;28;20029;-71
2022/09/30 05:39:23;;;;;;;22.02;14.95;;;9.10;99.90;;;;;;5034073;28;20059;-70
2022/09/30 05:41:49;;;;;;;28.85;14.32;;;9.00;99.90;;;;;;5034879;28;20018;-71
2022/09/30 05:44:14;;;;;;;18.30;13.27;;;9.00;99.90;;;;;;5034524;28;20075;-71
2022/09/30 05:46:41;;;;;;;21.67;14.00;;;9.00;99.90;;;;;;5034531;28;20030;-71
2022/09/30 05:49:07;;;;;;;18.17;14.13;;;9.10;99.90;;;;;;5034378;28;20555;-71
2022/09/30 05:51:33;;;;;;;22.45;14.20;;;9.20;99.90;;;;;;5034009;28;20029;-71
2022/09/30 05:53:58;;;;;;;20.17;13.80;;;9.20;99.90;;;;;;5034591;28;20026;-71
2022/09/30 05:56:24;;;;;;;19.10;13.23;;;9.20;99.90;;;;;;5034391;28;20076;-71
2022/09/30 05:58:49;;;;;;;20.75;14.63;;;9.10;99.90;;;;;;5034322;28;20500;-71
2022/09/30 06:01:15;;;;;;;23.13;13.30;;;9.10;99.90;;;;;;5034167;28;20147;-71
2022/09/30 06:03:42;;;;;;;23.83;15.82;;;9.00;99.90;;;;;;5033596;28;20036;-71
2022/09/30 06:06:09;;;;;;;18.95;13.90;;;8.90;99.90;;;;;;5045794;28;20025;-71
2022/09/30 06:08:35;;;;;;;29.83;17.70;;;8.90;99.90;;;;;;5054276;28;20021;-71
2022/09/30 06:11:00;;;;;;;31.90;16.52;;;8.90;99.90;;;;;;5053953;28;20032;-71
2022/09/30 06:13:27;;;;;;;26.52;17.73;;;8.90;99.90;;;;;;5048980;28;20497;-69
2022/09/30 06:16:00;;;;;;;23.63;14.43;;;9.00;99.90;;;;;;5033543;28;20071;-69
2022/09/30 06:18:27;;;;;;;24.50;15.77;;;9.10;99.90;;;;;;5034420;28;20033;-69
2022/09/30 06:21:01;;;;;;;19.63;14.20;;;9.20;99.90;;;;;;5033833;28;20033;-69
2022/09/30 06:23:27;;;;;;;;;;;9.30;99.90;;;;;;5034238;28;20014;-69
2022/09/30 06:25:54;;;;;;;18.20;12.60;;;9.40;99.90;;;;;;5033647;28;20140;-69
2022/09/30 06:28:20;;;;;;;19.77;12.75;;;9.50;99.90;;;;;;5033846;28;20040;-69
2022/09/30 06:30:46;;;;;;;16.98;12.50;;;9.50;99.90;;;;;;5033838;28;20475;-70
2022/09/30 06:33:13;;;;;;;17.98;13.63;;;9.70;99.90;;;;;;5033653;28;20112;-70
2022/09/30 06:35:42;;;;;;;20.70;13.52;;;9.80;99.90;;;;;;5033295;28;20029;-69
2022/09/30 06:38:08;;;;;;;20.63;13.40;;;9.70;99.90;;;;;;5033735;28;20033;-69
2022/09/30 06:40:34;;;;;;;19.42;13.50;;;9.90;99.90;;;;;;5033826;28;20025;-70
2022/09/30 06:43:01;;;;;;;18.48;11.88;;;9.90;99.90;;;;;;5033783;28;20100;-70
2022/09/30 06:45:27;;;;;;;21.05;14.70;;;10.00;99.90;;;;;;5033477;28;20036;-69
2022/09/30 06:47:57;;;;;;;20.15;14.35;;;10.00;99.90;;;;;;5033960;28;20076;-69
2022/09/30 06:50:23;;;;;;;18.58;12.00;;;10.10;99.90;;;;;;5033138;28;20022;-69
2022/09/30 06:52:50;;;;;;;18.38;14.05;;;10.20;99.90;;;;;;5033459;28;20104;-69
2022/09/30 06:55:16;;;;;;;21.08;13.73;;;10.20;99.90;;;;;;5034388;28;20362;-69
2022/09/30 06:57:42;;;;;;;21.05;13.45;;;10.30;99.90;;;;;;5033729;28;20033;-69
2022/09/30 07:00:08;;;;;;;21.13;14.13;;;10.40;99.90;;;;;;5033406;28;20108;-69
2022/09/30 07:02:35;;;;;;;19.92;13.35;;;10.40;99.90;;;;;;5032799;28;20465;-70
2022/09/30 07:05:03;;;;;;;17.15;12.38;;;10.50;99.90;;;;;;5033740;28;20354;-70
2022/09/30 07:07:28;;;;;;;16.08;11.35;;;10.50;99.90;;;;;;5033708;28;20017;-70
2022/09/30 07:09:54;;;;;;;14.73;10.57;;;10.60;99.90;;;;;;5033418;28;20025;-70
2022/09/30 07:12:20;;;;;;;20.70;10.43;;;10.70;99.90;;;;;;5033272;28;20366;-69
2022/09/30 07:14:45;;;;;;;14.40;11.45;;;10.80;99.90;;;;;;5032546;28;20025;-70
2022/09/30 07:17:11;;;;;;;19.65;12.07;;;10.80;99.90;;;;;;5033346;28;20049;-70
2022/09/30 07:19:37;;;;;;;14.88;10.18;;;10.80;99.90;;;;;;5033129;28;20529;-70
2022/09/30 07:24:47;;;;;;;11.45;9.70;;;10.90;99.90;;;;;;5035642;28;20099;-70
2022/09/30 07:27:13;;;;;;;18.45;10.32;;;10.90;99.90;;;;;;5038524;28;20021;-70
2022/09/30 07:29:40;;;;;;;14.38;10.55;;;10.80;99.90;;;;;;5037158;28;20029;-70
2022/09/30 07:32:06;;;;;;;12.02;8.45;;;10.80;99.90;;;;;;5019345;28;20389;-69
2022/09/30 07:34:32;;;;;;;10.43;8.00;;;10.90;99.90;;;;;;5036987;28;20037;-69
2022/09/30 07:36:57;;;;;;;11.88;8.40;;;10.90;99.90;;;;;;5036598;28;20087;-69
2022/09/30 07:39:23;;;;;;;13.27;8.18;;;11.00;99.90;;;;;;5037179;28;20028;-69
2022/09/30 07:41:49;;;;;;;18.92;9.75;;;11.20;99.90;;;;;;5036993;28;20108;-69
2022/09/30 07:44:15;;;;;;;14.20;9.73;;;11.40;99.90;;;;;;5036977;28;20033;-69
2022/09/30 07:46:42;;;;;;;15.88;9.73;;;11.50;99.90;;;;;;5037042;28;20068;-69
2022/09/30 07:49:13;;;;;;;16.20;9.32;;;11.70;99.90;;;;;;5036782;28;20049;-69
2022/09/30 07:51:43;;;;;;;16.77;9.10;;;11.90;99.90;;;;;;5036444;28;20048;-69
2022/09/30 07:54:15;;;;;;;11.18;8.77;;;11.90;99.90;;;;;;5036575;28;20037;-69
2022/09/30 07:56:42;;;;;;;10.13;7.82;;;12.10;99.90;;;;;;5036818;28;20034;-69
2022/09/30 07:59:10;;;;;;;12.25;8.40;;;12.10;99.90;;;;;;5036449;28;20520;-69
2022/09/30 08:01:35;;;;;;;11.27;7.30;;;12.20;99.90;;;;;;5036345;28;20030;-70
2022/09/30 08:04:07;;;;;;;13.38;6.80;;;12.40;99.90;;;;;;5051117;28;20032;-70
2022/09/30 08:06:38;;;;;;;9.38;7.10;;;12.30;99.90;;;;;;5056280;28;20062;-70
2022/09/30 08:09:04;;;;;;;10.15;6.75;;;12.20;99.90;;;;;;5056722;28;20021;-70
2022/09/30 08:11:34;;;;;;;11.48;6.65;;;12.40;99.90;;;;;;5056100;28;20029;-70
2022/09/30 08:14:00;;;;;;;9.10;6.13;;;12.50;99.90;;;;;;5042424;28;20493;-69
2022/09/30 08:16:26;;;;;;;7.13;5.40;;;12.40;99.90;;;;;;5035738;28;20049;-69
2022/09/30 08:18:56;;;;;;;8.73;6.38;;;12.50;99.90;;;;;;5036357;28;20036;-69
2022/09/30 08:21:22;;;;;;;6.72;4.68;;;12.60;99.90;;;;;;5036024;28;20060;-69
2022/09/30 08:23:47;;;;;;;7.57;5.32;;;12.40;99.90;;;;;;5035869;28;20029;-69
2022/09/30 08:26:15;;;;;;;11.13;5.32;;;12.30;99.90;;;;;;5035782;28;20033;-69
2022/09/30 08:28:41;;;;;;;8.77;5.45;;;12.20;99.90;;;;;;5036132;28;20017;-69
2022/09/30 08:31:09;;;;;;;8.77;4.97;;;12.30;99.90;;;;;;5036075;28;20033;-69
2022/09/30 08:33:35;;;;;;;7.90;4.95;;;12.50;99.90;;;;;;5035702;28;20026;-69
2022/09/30 08:36:05;;;;;;;8.77;4.82;;;12.60;99.90;;;;;;5036036;28;20377;-69
2022/09/30 08:38:32;;;;;;;12.80;5.18;;;12.80;99.90;;;;;;5035988;28;20021;-69
2022/09/30 08:41:23;;;;;;;9.23;3.92;;;12.90;99.90;;;;;;5035619;28;20041;-69
2022/09/30 08:44:09;;;;;;;10.13;4.20;;;12.90;99.90;;;;;;5035705;28;20027;-69
2022/09/30 08:46:51;;;;;;;4.88;3.88;;;13.40;99.90;;;;;;5035928;28;20018;-69
2022/09/30 08:49:54;;;;;;;4.40;3.13;;;13.70;99.90;;;;;;5017346;28;20036;-69
2022/09/30 08:52:27;;;;;;;7.53;4.07;;;13.70;99.90;;;;;;5035504;28;20025;-69
2022/09/30 08:54:55;;;;;;;10.57;3.90;;;13.50;99.90;;;;;;5035568;28;20104;-69
2022/09/30 08:57:22;;;;;;;5.80;4.80;;;13.40;99.90;;;;;;5035467;28;20049;-69
2022/09/30 08:59:59;;;;;;;5.20;4.07;;;13.50;99.90;;;;;;5034674;28;20445;-70
2022/09/30 09:02:36;;;;;;;5.32;3.75;;;13.40;99.90;;;;;;5035107;28;20041;-70
2022/09/30 09:05:06;;;;;;;4.80;3.47;;;13.40;99.90;;;;;;5074682;23;20045;-68
2022/09/30 09:07:44;;;;;;;9.35;3.67;;;13.30;99.90;;;;;;5055067;28;20104;-68
2022/09/30 09:10:42;;;;;;;5.25;3.55;;;13.30;99.90;;;;;;5054967;28;20415;-69
2022/09/30 09:13:10;;;;;;;6.47;3.33;;;13.40;99.90;;;;;;5052818;28;20025;-69
2022/09/30 09:15:55;;;;;;;4.97;2.83;;;13.50;99.90;;;;;;5035175;28;20028;-69
2022/09/30 09:18:36;;;;;;;4.18;2.70;;;13.60;99.90;;;;;;5033755;28;20029;-69
2022/09/30 09:21:21;;;;;;;2.67;2.22;;;13.70;99.90;;;;;;5027931;28;20029;-69
2022/09/30 09:23:50;;;;;;;4.65;2.40;;;13.60;99.90;;;;;;5014743;28;20053;-69
2022/09/30 09:26:16;;;;;;;2.65;1.70;;;13.40;99.90;;;;;;5015073;28;20099;-69
2022/09/30 09:29:06;;;;;;;2.67;1.80;;;13.20;99.90;;;;;;5014990;28;20028;-69
2022/09/30 09:31:32;;;;;;;4.10;2.25;;;12.90;99.90;;;;;;5015205;28;20064;-68
2022/09/30 09:34:10;;;;;;;6.53;3.03;;;12.90;99.90;;;;;;5014716;28;20065;-68
2022/09/30 09:36:51;;;;;;;12.70;4.22;;;12.80;99.90;;;;;;5014757;28;20470;-68
2022/09/30 09:39:35;;;;;;;7.00;2.58;;;13.00;99.90;;;;;;5014767;28;20394;-67
2022/09/30 09:42:21;;;;;;;2.70;1.50;;;13.50;99.90;;;;;;5014960;28;20034;-67
2022/09/30 09:45:10;;;;;;;9.13;1.42;;;14.20;99.90;;;;;;5014851;28;20033;-67
2022/09/30 09:47:36;;;;;;;1.95;1.40;;;15.20;99.90;;;;;;5014879;28;20513;-67
2022/09/30 09:50:11;;;;;;;2.25;1.13;;;15.50;99.90;;;;;;5014029;28;20101;-67
2022/09/30 09:53:04;;;;;;;1.60;0.77;;;15.90;99.90;;;;;;5014847;28;20022;-67
2022/09/30 09:55:29;;;;;;;1.95;0.93;;;16.20;99.90;;;;;;5014511;28;20097;-67
2022/09/30 09:58:12;;;;;;;2.20;0.85;;;16.00;99.90;;;;;;5013949;28;20561;-68
2022/09/30 10:03:22;;;;;;;1.67;0.80;;;15.90;99.90;;;;;;5034508;28;20266;-68
2022/09/30 10:06:07;;;;;;;1.70;1.33;;;15.40;99.90;;;;;;5034384;28;20496;-68
2022/09/30 10:08:39;;;;;;;2.95;1.40;;;15.20;99.90;;;;;;5034215;28;20053;-68
2022/09/30 10:11:23;;;;;;;5.30;1.73;;;15.30;99.90;;;;;;5033466;28;20053;-68
2022/09/30 10:13:51;;;;;;;4.90;1.55;;;15.50;99.90;;;;;;5022274;28;20026;-68
2022/09/30 10:16:34;;;;;;;1.92;1.00;;;15.70;99.90;;;;;;5014133;28;20022;-68
2022/09/30 10:19:01;;;;;;;1.48;0.93;;;15.90;99.90;;;;;;5014454;28;20030;-67
2022/09/30 10:21:28;;;;;;;2.13;1.13;;;15.70;99.90;;;;;;5014052;28;20470;-68
2022/09/30 10:23:54;;;;;;;1.30;0.73;;;15.50;99.90;;;;;;5013718;28;20073;-68
2022/09/30 10:26:23;;;;;;;1.02;0.80;;;15.30;99.90;;;;;;5013987;28;20479;-68
2022/09/30 10:28:54;;;;;;;1.85;1.10;;;15.30;99.90;;;;;;5014233;28;20471;-68
2022/09/30 10:31:34;;;;;;;3.00;1.15;;;15.30;99.90;;;;;;5013958;28;20077;-68
2022/09/30 10:33:59;;;;;;;1.05;0.65;;;15.40;99.90;;;;;;5013990;28;20018;-68
2022/09/30 10:36:32;;;;;;;4.00;1.08;;;15.40;99.90;;;;;;5014098;28;20018;-68
2022/09/30 10:39:04;;;;;;;1.05;0.77;;;15.30;99.90;;;;;;5013724;28;20517;-68
2022/09/30 10:41:31;;;;;;;2.75;1.00;;;15.20;99.90;;;;;;5013764;28;20470;-67
2022/09/30 10:44:01;;;;;;;3.40;1.02;;;15.00;99.90;;;;;;5013659;28;20105;-67
2022/09/30 10:46:34;;;;;;;4.43;0.80;;;14.90;99.90;;;;;;5013482;28;20101;-68
2022/09/30 10:49:19;;;;;;;8.05;1.02;;;15.00;99.90;;;;;;5013547;28;20032;-68
2022/09/30 10:51:45;;;;;;;2.67;0.82;;;15.10;99.90;;;;;;5013912;28;20033;-68
2022/09/30 10:54:47;;;;;;;2.55;0.80;;;15.40;99.90;;;;;;5013525;28;20037;-67
2022/09/30 10:57:25;;;;;;;3.40;1.00;;;15.80;99.90;;;;;;5013837;28;20025;-67
2022/09/30 10:59:56;;;;;;;5.05;1.40;;;16.10;99.90;;;;;;5012765;28;20080;-67
2022/09/30 11:02:29;;;;;;;2.72;1.15;;;16.60;99.90;;;;;;5013306;28;20018;-67
2022/09/30 11:05:23;;;;;;;3.90;0.73;;;16.80;99.90;;;;;;5013454;28;20033;-67
2022/09/30 11:08:00;;;;;;;1.30;0.75;;;17.20;99.90;;;;;;4991701;28;20030;-67
2022/09/30 11:10:47;;;;;;;1.95;1.05;;;17.50;99.90;;;;;;5013661;28;20385;-67
2022/09/30 11:13:35;;;;;;;5.20;1.05;;;17.50;99.90;;;;;;5013949;28;20022;-67
2022/09/30 11:16:07;;;;;;;2.58;1.20;;;17.50;99.90;;;;;;5013213;28;20029;-67
2022/09/30 11:18:52;;;;;;;2.63;1.08;;;17.20;99.90;;;;;;5013562;28;20493;-67
2022/09/30 11:21:26;;;;;;;5.88;0.80;;;17.10;99.90;;;;;;5013656;28;20108;-67
2022/09/30 11:24:12;;;;;;;2.90;0.90;;;17.50;99.90;;;;;;5013797;28;20072;-67
2022/09/30 11:26:41;;;;;;;7.22;1.17;;;17.80;99.90;;;;;;5013115;28;20022;-67
2022/09/30 11:29:34;;;;;;;6.57;0.85;;;18.00;99.90;;;;;;5013295;28;20029;-67
2022/09/30 11:32:36;;;;;;;2.53;1.13;;;18.00;99.90;;;;;;5013595;28;20049;-67
2022/09/30 11:35:05;;;;;;;2.60;0.88;;;18.50;99.90;;;;;;5013526;28;20073;-67
2022/09/30 11:38:07;;;;;;;2.15;0.85;;;18.50;99.90;;;;;;5013659;28;20026;-67
2022/09/30 11:40:48;;;;;;;4.95;0.80;;;18.70;99.90;;;;;;5013446;28;20029;-67
2022/09/30 11:43:54;;;;;;;2.63;0.90;;;19.20;99.90;;;;;;5012467;28;20157;-67
2022/09/30 11:46:37;;;;;;;2.67;0.98;;;19.40;99.90;;;;;;4969687;28;20034;-67
2022/09/30 11:49:32;;;;;;;2.17;1.02;;;18.80;99.90;;;;;;5013909;28;20033;-67
2022/09/30 11:52:28;;;;;;;7.28;1.20;;;17.60;99.90;;;;;;5012643;28;20084;-67
2022/09/30 11:55:19;;;;;;;1.90;1.08;;;17.60;99.90;;;;;;5013252;28;20030;-67
2022/09/30 11:58:00;;;;;;;3.50;0.80;;;17.10;99.90;;;;;;5013289;28;20041;-67
2022/09/30 12:00:27;;;;;;;7.43;0.93;;;17.00;99.90;;;;;;5013242;28;20115;-67
2022/09/30 12:03:06;;;;;;;3.97;0.80;;;17.40;99.90;;;;;;5013015;28;20022;-67
2022/09/30 12:05:38;;;;;;;3.13;1.25;;;18.30;99.90;;;;;;5012656;28;20033;-67
2022/09/30 12:08:31;;;;;;;3.72;1.05;;;18.90;99.90;;;;;;5013282;28;20018;-67
2022/09/30 12:11:11;;;;;;;2.63;0.85;;;18.20;99.90;;;;;;5013341;28;20037;-67
2022/09/30 12:13:50;;;;;;;2.38;1.00;;;17.60;99.90;;;;;;5016512;28;20032;-67
2022/09/30 12:16:24;;;;;;;7.38;1.35;;;17.70;99.90;;;;;;5016163;28;20076;-67
2022/09/30 12:18:59;;;;;;;4.78;0.90;;;17.70;99.90;;;;;;5016606;28;20045;-67
2022/09/30 12:21:34;;;;;;;1.15;0.80;;;18.20;99.90;;;;;;5016489;28;20405;-67
2022/09/30 12:24:10;;;;;;;3.53;0.90;;;19.10;99.90;;;;;;5016443;28;20390;-67
2022/09/30 12:26:36;;;;;;;5.70;1.00;;;19.00;99.90;;;;;;5015746;28;20050;-66
2022/09/30 12:32:07;;;;;;;7.35;1.30;;;17.50;99.90;;;;;;5016603;28;20100;-67
2022/09/30 12:35:00;;;;;;;5.55;0.98;;;17.70;99.90;;;;;;5016107;28;20156;-66
2022/09/30 12:37:53;;;;;;;6.72;1.20;;;18.00;99.90;;;;;;5016048;28;20109;-67
2022/09/30 12:40:32;;;;;;;4.00;1.55;;;18.40;99.90;;;;;;5016163;28;20034;-66
2022/09/30 12:43:31;;;;;;;4.55;0.95;;;18.50;99.90;;;;;;5015862;28;20018;-67
2022/09/30 12:46:09;;;;;;;6.18;1.15;;;18.70;99.90;;;;;;5016093;28;20021;-67
2022/09/30 12:48:52;;;;;;;12.80;1.45;;;18.50;99.90;;;;;;5015362;28;20521;-67
2022/09/30 12:51:42;;;;;;;3.95;1.10;;;19.00;99.90;;;;;;5015878;28;20028;-67
2022/09/30 12:54:29;;;;;;;3.35;1.17;;;19.30;99.90;;;;;;5015708;28;20080;-67
2022/09/30 12:57:02;;;;;;;5.10;1.00;;;19.90;99.90;;;;;;5015966;28;20034;-67
2022/09/30 12:59:34;;;;;;;2.67;0.70;;;19.70;99.90;;;;;;5015418;28;20468;-67
2022/09/30 13:02:03;;;;;;;1.42;0.70;;;19.50;99.90;;;;;;5015840;28;20034;-67
2022/09/30 13:04:38;;;;;;;4.30;1.05;;;19.60;99.90;;;;;;5015301;28;20389;-67
2022/09/30 13:07:10;;;;;;;5.35;1.17;;;19.10;99.90;;;;;;5015712;28;20084;-67
2022/09/30 13:09:57;;;;;;;2.97;1.10;;;18.60;99.90;;;;;;5015808;28;20141;-67
2022/09/30 13:12:38;;;;;;;4.53;0.90;;;19.10;99.90;;;;;;5015192;28;20026;-67
2022/09/30 13:15:28;;;;;;;3.42;0.90;;;18.80;99.90;;;;;;5015393;28;20053;-67
2022/09/30 13:18:01;;;;;;;3.95;1.40;;;19.10;99.90;;;;;;5015263;28;20041;-67
2022/09/30 13:20:56;;;;;;;1.90;1.10;;;19.10;99.90;;;;;;5014806;28;20120;-67